createdAt,value
2019-03-24T00:00:49.105Z,24.87
2019-03-24T00:03:18.271Z,23.77
2019-03-24T00:05:47.448Z,19.85
2019-03-24T00:08:16.835Z,22.37
2019-03-24T00:10:45.979Z,23.50
2019-03-24T00:13:15.199Z,16.48
2019-03-24T00:15:44.373Z,17.98
2019-03-24T00:18:13.884Z,26.70
2019-03-24T00:20:43.049Z,19.85
2019-03-24T00:23:13.917Z,21.68
2019-03-24T00:25:47.185Z,26.82
2019-03-24T00:28:20.676Z,18.15
2019-03-24T00:30:58.975Z,20.02
2019-03-24T00:33:28.134Z,18.87
2019-03-24T00:35:57.307Z,19.42
2019-03-24T00:38:26.454Z,17.73
2019-03-24T00:40:55.626Z,33.58
2019-03-24T00:43:24.779Z,22.73
2019-03-24T00:45:53.952Z,24.95
2019-03-24T00:48:23.103Z,21.07
2019-03-24T00:50:52.352Z,26.73
2019-03-24T00:53:21.496Z,16.42
2019-03-24T00:55:50.651Z,26.17
2019-03-24T00:58:19.913Z,26.48
2019-03-24T01:00:51.980Z,24.82
2019-03-24T01:03:21.188Z,25.10
2019-03-24T01:05:50.427Z,21.55
2019-03-24T01:08:19.579Z,18.52
2019-03-24T01:10:48.826Z,23.57
2019-03-24T01:13:18.051Z,27.55
2019-03-24T01:15:49.209Z,26.52
2019-03-24T01:18:18.441Z,19.10
2019-03-24T01:20:47.597Z,20.68
2019-03-24T01:23:16.768Z,17.57
2019-03-24T01:25:45.935Z,21.95
2019-03-24T01:28:15.092Z,22.30
2019-03-24T01:30:44.243Z,21.42
2019-03-24T01:33:13.404Z,24.67
2019-03-24T01:35:42.543Z,27.32
2019-03-24T01:38:11.708Z,24.12
2019-03-24T01:40:40.896Z,23.52
2019-03-24T01:43:10.058Z,18.60
2019-03-24T01:45:39.212Z,12.05
2019-03-24T01:48:08.374Z,25.45
2019-03-24T01:50:37.613Z,21.12
2019-03-24T01:53:06.844Z,28.52
2019-03-24T01:55:36.002Z,24.70
2019-03-24T01:58:05.815Z,21.52
2019-03-24T02:00:34.965Z,25.62
2019-03-24T02:03:04.157Z,28.02
2019-03-24T02:05:33.451Z,24.45
2019-03-24T02:08:02.630Z,17.40
2019-03-24T02:10:31.802Z,24.82
2019-03-24T02:13:00.954Z,23.57
2019-03-24T02:15:30.116Z,23.55
2019-03-24T02:17:59.273Z,28.38
2019-03-24T02:20:28.445Z,21.68
2019-03-24T02:22:57.609Z,30.55
2019-03-24T02:25:26.777Z,25.62
2019-03-24T02:27:56.315Z,31.60
2019-03-24T02:30:25.490Z,29.55
2019-03-24T02:32:54.670Z,16.80
2019-03-24T02:35:23.987Z,18.52
2019-03-24T02:37:53.150Z,22.20
2019-03-24T02:40:22.307Z,20.80
2019-03-24T02:42:51.476Z,16.50
2019-03-24T02:45:20.636Z,24.55
2019-03-24T02:47:49.821Z,23.32
2019-03-24T02:50:18.989Z,21.55
2019-03-24T02:52:48.175Z,17.15
2019-03-24T02:55:17.342Z,19.23
2019-03-24T02:57:46.787Z,21.80
2019-03-24T03:00:17.194Z,31.95
2019-03-24T03:02:46.358Z,23.18
2019-03-24T03:05:15.529Z,30.02
2019-03-24T03:07:44.696Z,17.17
2019-03-24T03:10:13.886Z,23.45
2019-03-24T03:12:43.039Z,19.77
2019-03-24T03:15:12.258Z,26.27
2019-03-24T03:17:41.458Z,21.65
2019-03-24T03:20:10.662Z,23.73
2019-03-24T03:22:39.825Z,29.98
2019-03-24T03:25:09.542Z,19.92
2019-03-24T03:27:38.705Z,24.93
2019-03-24T03:30:08.215Z,21.37
2019-03-24T03:32:37.369Z,24.25
2019-03-24T03:35:08.765Z,28.75
2019-03-24T03:37:38.053Z,16.40
2019-03-24T03:40:08.764Z,17.77
2019-03-24T03:45:11.452Z,27.90
2019-03-24T03:47:41.227Z,20.00
2019-03-24T03:50:10.393Z,26.07
2019-03-24T03:52:40.114Z,27.35
2019-03-24T03:55:09.301Z,28.43
2019-03-24T03:57:40.063Z,15.03
2019-03-24T04:00:09.890Z,23.38
2019-03-24T04:02:39.057Z,27.10
2019-03-24T04:05:08.214Z,19.85
2019-03-24T04:07:37.366Z,33.78
2019-03-24T04:10:06.550Z,21.85
2019-03-24T04:12:35.686Z,25.75
2019-03-24T04:15:08.437Z,22.15
2019-03-24T04:17:37.594Z,19.10
2019-03-24T04:20:07.031Z,14.35
2019-03-24T04:22:36.254Z,25.60
2019-03-24T04:25:07.398Z,30.48
2019-03-24T04:27:36.653Z,24.63
2019-03-24T04:30:06.775Z,21.35
2019-03-24T04:32:36.616Z,27.58
2019-03-24T04:35:09.364Z,15.80
2019-03-24T04:37:38.525Z,25.12
2019-03-24T04:40:07.954Z,22.48
2019-03-24T04:42:37.105Z,18.75
2019-03-24T04:45:06.333Z,18.82
2019-03-24T04:47:35.557Z,25.00
2019-03-24T04:50:08.594Z,30.90
2019-03-24T04:52:37.744Z,28.47
2019-03-24T04:55:09.809Z,32.80
2019-03-24T04:57:39.016Z,20.77
2019-03-24T05:00:09.103Z,26.75
2019-03-24T05:02:38.256Z,27.25
2019-03-24T05:05:08.658Z,26.77
2019-03-24T05:07:38.293Z,26.75
2019-03-24T05:10:15.074Z,15.10
2019-03-24T05:12:44.225Z,23.25
2019-03-24T05:15:13.387Z,23.67
2019-03-24T05:17:42.660Z,25.00
2019-03-24T05:20:11.835Z,26.65
2019-03-24T05:22:40.992Z,35.10
2019-03-24T05:25:10.158Z,33.23
2019-03-24T05:27:39.335Z,23.70
2019-03-24T05:30:08.736Z,29.50
2019-03-24T05:32:37.890Z,30.62
2019-03-24T05:35:09.106Z,19.85
2019-03-24T05:37:38.304Z,29.40
2019-03-24T05:40:07.460Z,13.72
2019-03-24T05:42:36.608Z,34.13
2019-03-24T05:45:08.964Z,22.98
2019-03-24T05:47:38.119Z,22.77
2019-03-24T05:50:10.415Z,20.05
2019-03-24T05:52:39.567Z,27.48
2019-03-24T05:55:08.735Z,23.12
2019-03-24T05:57:37.893Z,19.27
2019-03-24T06:00:08.363Z,28.20
2019-03-24T06:02:37.578Z,27.90
2019-03-24T06:05:07.261Z,33.45
2019-03-24T06:07:36.449Z,32.60
2019-03-24T06:10:07.409Z,36.42
2019-03-24T06:12:36.575Z,35.25
2019-03-24T06:15:08.420Z,32.17
2019-03-24T06:17:47.123Z,32.28
2019-03-24T06:20:08.483Z,17.67
2019-03-24T06:22:37.630Z,21.97
2019-03-24T06:25:07.787Z,20.45
2019-03-24T06:27:36.935Z,25.08
2019-03-24T06:30:08.000Z,33.45
2019-03-24T06:32:37.227Z,19.20
2019-03-24T06:35:25.823Z,26.10
2019-03-24T06:37:54.989Z,21.02
2019-03-24T06:40:24.180Z,27.90
2019-03-24T06:42:53.315Z,29.65
2019-03-24T06:45:28.298Z,32.05
2019-03-24T06:47:58.038Z,27.17
2019-03-24T06:50:24.382Z,21.65
2019-03-24T06:52:53.538Z,27.00
2019-03-24T06:55:22.749Z,29.42
2019-03-24T06:57:51.918Z,24.52
2019-03-24T07:00:21.075Z,26.77
2019-03-24T07:02:50.222Z,24.23
2019-03-24T07:05:19.392Z,31.52
2019-03-24T07:07:48.621Z,21.82
2019-03-24T07:10:17.770Z,26.23
2019-03-24T07:12:46.995Z,32.45
2019-03-24T07:15:16.215Z,30.80
2019-03-24T07:17:45.368Z,29.35
2019-03-24T07:20:14.514Z,28.35
2019-03-24T07:22:43.671Z,36.70
2019-03-24T07:25:12.844Z,25.68
2019-03-24T07:27:41.979Z,29.77
2019-03-24T07:30:11.314Z,41.28
2019-03-24T07:32:40.470Z,29.48
2019-03-24T07:35:09.843Z,33.15
2019-03-24T07:37:39.006Z,31.85
2019-03-24T07:40:08.288Z,24.23
2019-03-24T07:42:37.481Z,29.42
2019-03-24T07:45:08.328Z,33.40
2019-03-24T07:47:37.502Z,29.63
2019-03-24T07:50:08.136Z,42.78
2019-03-24T07:55:07.500Z,19.73
2019-03-24T07:57:36.672Z,35.23
2019-03-24T08:00:10.383Z,34.23
2019-03-24T08:02:50.956Z,31.82
2019-03-24T08:05:16.794Z,36.83
2019-03-24T08:07:45.946Z,21.23
2019-03-24T08:10:16.547Z,27.42
2019-03-24T08:15:14.337Z,32.50
2019-03-24T08:17:43.489Z,30.62
2019-03-24T08:20:12.721Z,28.70
2019-03-24T08:22:41.872Z,23.12
2019-03-24T08:25:11.031Z,33.33
2019-03-24T08:27:40.246Z,44.40
2019-03-24T08:30:09.412Z,31.00
2019-03-24T08:32:38.572Z,41.65
2019-03-24T08:35:07.750Z,31.90
2019-03-24T08:37:54.433Z,31.07
2019-03-24T08:40:11.520Z,20.40
2019-03-24T08:42:40.668Z,29.55
2019-03-24T08:45:14.724Z,31.33
2019-03-24T08:47:43.882Z,31.95
2019-03-24T08:50:13.019Z,22.32
2019-03-24T08:52:42.189Z,25.97
2019-03-24T08:55:11.408Z,31.17
2019-03-24T08:57:41.182Z,28.47
2019-03-24T09:00:10.332Z,25.77
2019-03-24T09:02:39.759Z,19.35
2019-03-24T09:05:08.924Z,26.70
2019-03-24T09:07:39.718Z,18.98
2019-03-24T09:10:08.887Z,24.82
2019-03-24T09:12:38.069Z,21.80
2019-03-24T09:15:07.381Z,23.67
2019-03-24T09:17:36.587Z,24.20
2019-03-24T09:20:06.616Z,21.60
2019-03-24T09:22:35.791Z,31.65
2019-03-24T09:25:06.979Z,23.77
2019-03-24T09:27:36.123Z,17.42
2019-03-24T09:30:08.653Z,27.52
2019-03-24T09:32:37.816Z,22.85
2019-03-24T09:35:07.179Z,26.20
2019-03-24T09:37:36.347Z,20.75
2019-03-24T09:40:09.278Z,31.37
2019-03-24T09:42:38.485Z,17.02
2019-03-24T09:45:07.663Z,10.78
2019-03-24T09:47:36.814Z,18.30
2019-03-24T09:50:06.718Z,31.80
2019-03-24T09:52:35.956Z,36.33
2019-03-24T09:55:07.170Z,16.55
2019-03-24T09:57:36.337Z,23.38
2019-03-24T10:00:26.557Z,15.40
2019-03-24T10:02:55.731Z,25.08
2019-03-24T10:05:24.997Z,15.88
2019-03-24T10:07:54.172Z,17.77
2019-03-24T10:10:23.337Z,21.25
2019-03-24T10:12:52.517Z,17.07
2019-03-24T10:15:21.690Z,11.05
2019-03-24T10:17:50.846Z,18.90
2019-03-24T10:20:20.030Z,22.52
2019-03-24T10:22:50.097Z,16.60
2019-03-24T10:25:19.516Z,12.40
2019-03-24T10:27:48.697Z,21.45
2019-03-24T10:30:17.876Z,18.07
2019-03-24T10:32:48.042Z,16.62
2019-03-24T10:35:17.259Z,15.23
2019-03-24T10:37:46.458Z,21.00
2019-03-24T10:40:15.836Z,14.20
2019-03-24T10:42:45.025Z,17.12
2019-03-24T10:45:14.260Z,19.00
2019-03-24T10:47:43.413Z,22.15
2019-03-24T10:50:14.387Z,18.40
2019-03-24T10:52:43.566Z,15.53
2019-03-24T10:55:12.883Z,16.10
2019-03-24T10:57:42.280Z,22.60
2019-03-24T11:00:13.656Z,16.07
2019-03-24T11:02:43.028Z,18.67
2019-03-24T11:05:12.197Z,22.25
2019-03-24T11:07:41.363Z,20.57
2019-03-24T11:10:10.579Z,25.45
2019-03-24T11:12:39.806Z,15.18
2019-03-24T11:15:10.644Z,10.30
2019-03-24T11:17:39.801Z,11.57
2019-03-24T11:20:09.045Z,13.68
2019-03-24T11:22:38.208Z,13.28
2019-03-24T11:43:00.792Z,14.58
2019-03-24T11:45:29.960Z,15.55
2019-03-24T11:47:59.129Z,16.87
2019-03-24T11:50:28.294Z,15.18
2019-03-24T11:52:57.468Z,11.65
2019-03-24T11:55:26.705Z,14.07
2019-03-24T11:58:05.265Z,16.32
2019-03-24T12:00:54.026Z,12.13
2019-03-24T12:03:25.282Z,11.85
2019-03-24T12:05:54.157Z,15.40
2019-03-24T12:08:23.327Z,10.13
2019-03-24T12:10:52.519Z,15.93
2019-03-24T12:13:21.671Z,15.72
2019-03-24T12:15:50.844Z,11.57
2019-03-24T12:18:20.013Z,16.15
2019-03-24T12:20:49.255Z,11.57
2019-03-24T12:23:20.943Z,25.82
2019-03-24T12:25:49.383Z,15.60
2019-03-24T12:28:20.571Z,20.43
2019-03-24T12:30:49.768Z,21.20
2019-03-24T12:33:18.962Z,13.75
2019-03-24T12:35:48.107Z,21.87
2019-03-24T12:38:18.192Z,13.72
2019-03-24T12:40:47.356Z,16.15
2019-03-24T12:43:19.771Z,17.17
2019-03-24T12:45:47.404Z,13.15
2019-03-24T12:48:16.657Z,17.60
2019-03-24T12:50:46.092Z,15.90
2019-03-24T12:53:15.247Z,11.73
2019-03-24T12:55:44.489Z,15.35
2019-03-24T12:58:13.777Z,18.90
2019-03-24T13:00:42.941Z,12.10
2019-03-24T13:03:13.873Z,14.35
2019-03-24T13:05:43.175Z,16.20
2019-03-24T13:08:17.536Z,16.60
2019-03-24T13:10:46.756Z,15.85
2019-03-24T13:13:15.918Z,12.65
2019-03-24T13:15:51.177Z,8.95
2019-03-24T13:18:23.025Z,16.45
2019-03-24T13:20:55.488Z,10.40
2019-03-24T13:23:24.685Z,18.52
2019-03-24T13:25:53.946Z,14.00
2019-03-24T13:28:23.112Z,12.80
2019-03-24T13:30:52.532Z,12.33
2019-03-24T13:33:21.725Z,10.58
2019-03-24T13:35:52.544Z,13.70
2019-03-24T13:38:21.713Z,16.17
2019-03-24T13:40:50.951Z,19.15
2019-03-24T13:43:20.129Z,12.28
2019-03-24T13:45:49.334Z,12.65
2019-03-24T13:48:18.484Z,15.80
2019-03-24T13:50:47.668Z,11.88
2019-03-24T13:53:16.848Z,10.68
2019-03-24T13:55:46.041Z,11.53
2019-03-24T13:58:15.212Z,15.18
2019-03-24T14:00:44.440Z,17.15
2019-03-24T14:03:13.658Z,15.18
2019-03-24T14:05:42.898Z,19.42
2019-03-24T14:08:12.057Z,13.35
2019-03-24T14:10:41.442Z,11.93
2019-03-24T14:13:10.608Z,12.03
2019-03-24T14:15:39.856Z,10.23
2019-03-24T14:18:09.076Z,10.00
2019-03-24T14:20:43.420Z,9.90
2019-03-24T14:23:09.217Z,13.32
2019-03-24T14:25:38.376Z,9.83
2019-03-24T14:28:07.551Z,11.88
2019-03-24T14:30:48.464Z,10.10
2019-03-24T14:33:17.716Z,11.73
2019-03-24T14:35:46.866Z,8.45
2019-03-24T14:38:16.037Z,10.32
2019-03-24T14:40:45.218Z,12.43
2019-03-24T14:43:14.464Z,14.05
2019-03-24T14:45:43.641Z,12.50
2019-03-24T14:48:12.818Z,10.43
2019-03-24T14:50:42.002Z,13.20
2019-03-24T14:53:11.163Z,8.90
2019-03-24T14:55:40.604Z,12.30
2019-03-24T14:58:09.767Z,8.05
2019-03-24T15:00:41.351Z,6.87
2019-03-24T15:03:10.602Z,9.28
2019-03-24T15:05:39.835Z,6.17
2019-03-24T15:08:09.055Z,9.35
2019-03-24T15:10:38.229Z,8.83
2019-03-24T15:13:07.398Z,6.92
2019-03-24T15:15:36.579Z,8.33
2019-03-24T15:18:07.362Z,6.03
2019-03-24T15:20:36.608Z,9.80
2019-03-24T15:23:05.789Z,9.38
2019-03-24T15:25:34.963Z,10.65
2019-03-24T15:28:04.125Z,13.83
2019-03-24T15:30:33.288Z,13.78
2019-03-24T15:33:02.483Z,13.13
2019-03-24T15:35:31.640Z,15.43
2019-03-24T15:38:08.001Z,8.15
2019-03-24T15:40:31.715Z,9.25
2019-03-24T15:43:00.947Z,13.60
2019-03-24T15:45:30.142Z,12.20
2019-03-24T15:47:59.320Z,11.88
2019-03-24T15:50:28.502Z,12.93
2019-03-24T15:52:57.697Z,11.33
2019-03-24T15:55:33.747Z,9.93
2019-03-24T15:58:07.070Z,9.20
2019-03-24T16:00:42.329Z,12.00
2019-03-24T16:03:11.548Z,9.35
2019-03-24T16:05:40.710Z,11.33
2019-03-24T16:08:15.486Z,11.80
2019-03-24T16:10:44.652Z,10.28
2019-03-24T16:13:13.877Z,10.65
2019-03-24T16:15:43.134Z,7.50
2019-03-24T16:18:12.318Z,9.15
2019-03-24T16:20:41.628Z,9.13
2019-03-24T16:23:10.769Z,9.70
2019-03-24T16:25:41.556Z,11.33
2019-03-24T16:28:10.729Z,11.68
2019-03-24T16:30:39.922Z,7.28
2019-03-24T16:33:09.203Z,11.08
2019-03-24T16:35:41.570Z,10.25
2019-03-24T16:38:10.729Z,8.15
2019-03-24T16:40:41.460Z,10.28
2019-03-24T16:43:11.260Z,8.40
2019-03-24T16:45:40.540Z,10.00
2019-03-24T16:48:09.732Z,11.95
2019-03-24T16:50:38.955Z,13.98
2019-03-24T16:53:08.183Z,8.00
2019-03-24T16:55:37.371Z,12.18
2019-03-24T16:58:06.609Z,14.50
2019-03-24T17:00:35.783Z,7.92
2019-03-24T17:03:06.570Z,6.78
2019-03-24T17:05:35.755Z,9.38
2019-03-24T17:08:04.997Z,9.13
2019-03-24T17:10:37.503Z,13.22
2019-03-24T17:13:10.804Z,7.95
2019-03-24T17:15:40.283Z,7.70
2019-03-24T17:18:09.500Z,8.65
2019-03-24T17:20:38.660Z,11.95
2019-03-24T17:23:08.172Z,7.12
2019-03-24T17:25:37.421Z,10.05
2019-03-24T17:28:06.591Z,7.50
2019-03-24T17:30:35.733Z,9.05
2019-03-24T17:33:04.913Z,10.43
2019-03-24T17:35:34.065Z,11.45
2019-03-24T17:38:03.224Z,10.08
2019-03-24T17:40:38.540Z,7.80
2019-03-24T17:43:03.270Z,16.25
2019-03-24T17:45:32.419Z,8.98
2019-03-24T17:48:01.565Z,8.68
2019-03-24T17:50:30.783Z,10.18
2019-03-24T17:52:59.936Z,10.25
2019-03-24T17:55:31.062Z,10.15
2019-03-24T17:57:59.992Z,13.53
2019-03-24T18:00:47.695Z,11.97
2019-03-24T18:03:16.865Z,21.25
2019-03-24T18:05:46.003Z,14.07
2019-03-24T18:08:15.234Z,10.25
2019-03-24T18:10:44.388Z,20.37
2019-03-24T18:13:13.550Z,17.50
2019-03-24T18:15:42.701Z,11.12
2019-03-24T18:18:11.864Z,16.23
2019-03-24T18:20:41.093Z,13.28
2019-03-24T18:23:10.246Z,15.80
2019-03-24T18:25:39.510Z,16.35
2019-03-24T18:28:08.663Z,16.60
2019-03-24T18:30:37.915Z,14.40
2019-03-24T18:33:07.076Z,18.62
2019-03-24T18:35:36.255Z,11.53
2019-03-24T18:38:05.464Z,12.53
2019-03-24T18:40:34.634Z,10.63
2019-03-24T18:43:03.790Z,16.85
2019-03-24T18:45:32.951Z,17.15
2019-03-24T18:48:02.279Z,12.85
2019-03-24T18:50:31.551Z,11.97
2019-03-24T18:53:00.708Z,11.43
2019-03-24T18:55:29.841Z,5.22
2019-03-24T18:57:59.015Z,13.80
2019-03-24T19:00:28.223Z,4.95
2019-03-24T19:02:59.132Z,15.08
2019-03-24T19:05:28.338Z,15.48
2019-03-24T19:07:57.523Z,14.85
2019-03-24T19:10:26.732Z,12.28
2019-03-24T19:12:55.893Z,13.55
2019-03-24T19:15:25.163Z,11.83
2019-03-24T19:17:54.290Z,6.58
2019-03-24T19:20:23.465Z,13.03
2019-03-24T19:22:54.282Z,12.70
2019-03-24T19:25:23.448Z,18.10
2019-03-24T19:27:52.618Z,13.53
2019-03-24T19:30:32.492Z,13.72
2019-03-24T19:33:01.729Z,12.70
2019-03-24T19:35:30.888Z,14.40
2019-03-24T19:38:00.098Z,8.78
2019-03-24T19:40:33.763Z,14.28
2019-03-24T19:43:02.912Z,9.43
2019-03-24T19:45:32.094Z,12.88
2019-03-24T19:48:01.610Z,5.62
2019-03-24T19:50:30.764Z,9.90
2019-03-24T19:52:59.980Z,14.15
2019-03-24T19:55:29.138Z,14.03
2019-03-24T19:57:58.458Z,13.50
2019-03-24T20:00:27.603Z,7.58
2019-03-24T20:02:56.850Z,12.78
2019-03-24T20:05:26.995Z,13.93
2019-03-24T20:07:56.289Z,15.48
2019-03-24T20:10:25.487Z,14.73
2019-03-24T20:12:54.642Z,16.20
2019-03-24T20:15:23.886Z,14.78
2019-03-24T20:17:56.289Z,9.95
2019-03-24T20:20:37.182Z,13.43
2019-03-24T20:23:06.379Z,16.85
2019-03-24T20:25:35.615Z,11.88
2019-03-24T20:28:10.525Z,12.98
2019-03-24T20:30:41.385Z,16.93
2019-03-24T20:33:15.254Z,17.82
2019-03-24T20:35:59.727Z,15.80
2019-03-24T20:38:31.920Z,19.25
2019-03-24T20:41:04.628Z,13.85
2019-03-24T20:43:37.868Z,18.20
2019-03-24T20:46:09.744Z,17.75
2019-03-24T20:48:43.538Z,18.45
2019-03-24T20:51:31.925Z,13.22
2019-03-24T20:53:57.343Z,13.35
2019-03-24T20:56:27.285Z,17.07
2019-03-24T20:58:56.466Z,15.43
2019-03-24T21:01:25.606Z,14.18
2019-03-24T21:03:54.768Z,14.98
2019-03-24T21:06:24.042Z,16.87
2019-03-24T21:08:53.171Z,14.90
2019-03-24T21:11:22.348Z,14.43
2019-03-24T21:13:51.498Z,11.80
2019-03-24T21:16:21.031Z,12.43
2019-03-24T21:18:51.182Z,22.70
2019-03-24T21:23:54.526Z,16.67
2019-03-24T21:26:30.549Z,14.00
2019-03-24T21:28:59.706Z,21.57
2019-03-24T21:31:28.898Z,13.88
2019-03-24T21:33:58.049Z,23.50
2019-03-24T21:36:27.222Z,17.15
2019-03-24T21:38:56.408Z,25.17
2019-03-24T21:41:25.582Z,12.47
2019-03-24T21:43:57.498Z,20.50
2019-03-24T21:46:34.153Z,18.45
2019-03-24T21:49:03.298Z,19.37
2019-03-24T21:51:32.481Z,16.37
2019-03-24T21:54:01.640Z,14.80
2019-03-24T21:56:30.965Z,16.87
2019-03-24T21:59:00.136Z,14.83
2019-03-24T22:01:33.756Z,10.40
2019-03-24T22:04:02.925Z,10.82
2019-03-24T22:06:32.146Z,10.78
2019-03-24T22:09:01.327Z,14.38
2019-03-24T22:11:30.495Z,15.63
2019-03-24T22:13:59.638Z,14.05
2019-03-24T22:16:28.809Z,12.78
2019-03-24T22:18:57.988Z,16.32
2019-03-24T22:21:28.636Z,8.58
2019-03-24T22:26:42.059Z,13.50
2019-03-24T22:29:11.278Z,10.78
2019-03-24T22:31:40.634Z,21.37
2019-03-24T22:34:09.880Z,13.18
2019-03-24T22:36:39.035Z,10.68
2019-03-24T22:39:08.951Z,13.60
2019-03-24T22:41:40.156Z,16.85
2019-03-24T22:44:09.032Z,11.38
2019-03-24T22:46:38.168Z,9.90
2019-03-24T22:49:07.339Z,14.55
2019-03-24T22:51:36.495Z,21.85
2019-03-24T22:54:05.635Z,8.18
2019-03-24T22:56:34.809Z,13.35
2019-03-24T22:59:04.347Z,18.55
2019-03-24T23:01:33.561Z,13.55
2019-03-24T23:04:02.751Z,10.58
2019-03-24T23:06:31.898Z,18.77
2019-03-24T23:09:01.204Z,13.10
2019-03-24T23:11:30.370Z,14.53
2019-03-24T23:13:59.527Z,18.82
2019-03-24T23:16:28.741Z,22.02
2019-03-24T23:19:00.692Z,16.10
2019-03-24T23:21:29.837Z,11.53
2019-03-24T23:23:59.003Z,14.58
2019-03-24T23:26:28.149Z,15.20
2019-03-24T23:28:57.331Z,13.20
2019-03-24T23:31:26.481Z,12.88
2019-03-24T23:33:55.932Z,15.90
2019-03-24T23:36:25.084Z,18.98
2019-03-24T23:38:54.209Z,9.48
2019-03-24T23:41:23.399Z,16.42
2019-03-24T23:43:52.548Z,16.80
2019-03-24T23:46:21.703Z,19.17
2019-03-24T23:48:50.933Z,25.08
2019-03-24T23:51:20.058Z,9.78
2019-03-24T23:53:49.256Z,16.60
2019-03-24T23:56:18.474Z,19.32
2019-03-24T23:58:47.635Z,15.88
